Time;durP1;ratioP1;P1;durP2;ratioP2;P2;SDS_P1;SDS_P2;PMS_P1;PMS_P2;Temp;Humidity;BMP_temperature;BMP_pressure;BME280_temperature;BME280_humidity;BME280_pressure;Samples;Min_cycle;Max_cycle;Signal;HPM_P1;HPM_P2
2022/04/28 00:01:11;;;;;;;6.67;5.97;;;12.60;68.40;;;-142.21;100.00;112049.66;5072827;28;20531;-75
2022/04/28 00:03:40;;;;;;;7.17;6.47;;;12.70;68.00;;;-142.21;100.00;112049.66;5072353;28;20522;-75
2022/04/28 00:06:07;;;;;;;7.57;6.83;;;12.60;68.30;;;-142.21;100.00;112049.66;5073306;28;20443;-75
2022/04/28 00:08:34;;;;;;;7.27;6.57;;;12.60;68.60;;;-142.21;100.00;112049.66;5072471;28;20447;-74
2022/04/28 00:11:01;;;;;;;7.03;6.33;;;12.60;69.00;;;-142.21;100.00;112049.66;5072480;28;20482;-74
2022/04/28 00:13:28;;;;;;;7.53;6.40;;;12.60;69.40;;;-142.21;100.00;112049.66;5072629;28;20502;-74
2022/04/28 00:15:55;;;;;;;7.20;6.03;;;12.50;68.20;;;-142.21;100.00;112049.66;5071487;28;20460;-75
2022/04/28 00:18:22;;;;;;;7.07;6.37;;;12.50;68.50;;;-142.21;100.00;112049.66;5071578;28;20868;-74
2022/04/28 00:20:51;;;;;;;7.40;6.63;;;12.50;68.30;;;-142.21;100.00;112049.66;5069538;28;20512;-75
2022/04/28 00:23:18;;;;;;;8.87;6.30;;;12.50;68.70;;;-142.21;100.00;112049.66;5072941;28;20469;-75
2022/04/28 00:25:45;;;;;;;7.60;6.80;;;12.40;68.70;;;-142.21;100.00;112049.66;5072333;28;20795;-74
2022/04/28 00:28:13;;;;;;;6.87;6.17;;;12.30;69.00;;;-142.21;100.00;112049.66;5071708;28;20443;-75
2022/04/28 00:30:40;;;;;;;7.53;6.60;;;12.40;69.10;;;-142.21;100.00;112049.66;5072409;28;20444;-75
2022/04/28 00:33:07;;;;;;;7.50;6.77;;;12.30;68.90;;;-142.21;100.00;112049.66;5071979;28;20553;-75
2022/04/28 00:35:35;;;;;;;7.33;6.63;;;12.20;68.60;;;-142.21;100.00;112049.66;5072052;28;20523;-75
2022/04/28 00:38:03;;;;;;;7.60;6.80;;;12.20;69.40;;;-142.21;100.00;112049.66;5072472;28;20450;-75
2022/04/28 00:40:30;;;;;;;9.40;6.90;;;12.20;69.00;;;-142.21;100.00;112049.66;5072169;28;20443;-74
2022/04/28 00:43:18;;;;;;;7.83;7.03;;;12.20;69.00;;;-142.21;100.00;112049.66;5070329;28;20542;-75
2022/04/28 00:45:44;;;;;;;9.03;7.10;;;12.20;69.30;;;-142.21;100.00;112049.66;5069326;28;20444;-74
2022/04/28 00:51:01;;;;;;;7.30;6.67;;;12.10;69.50;;;-142.21;100.00;112049.66;5072062;28;20573;-75
2022/04/28 00:53:31;;;;;;;7.60;6.47;;;12.10;70.00;;;-142.21;100.00;112049.66;5072222;28;20440;-76
2022/04/28 00:55:59;;;;;;;7.57;6.47;;;12.10;69.20;;;-142.21;100.00;112049.66;5085683;28;20504;-75
2022/04/28 00:58:27;;;;;;;7.30;6.50;;;12.20;69.40;;;-142.21;100.00;112049.66;5070628;28;20445;-75
2022/04/28 01:00:56;;;;;;;7.00;6.30;;;12.10;69.10;;;-142.21;100.00;112049.66;5072340;28;20814;-74
2022/04/28 01:03:24;;;;;;;7.17;6.47;;;12.10;68.90;;;-142.21;100.00;112049.66;5071086;28;20447;-75
2022/04/28 01:05:51;;;;;;;6.97;6.27;;;12.00;69.20;;;-142.21;100.00;112049.66;5072392;28;20451;-75
2022/04/28 01:08:18;;;;;;;7.37;6.07;;;12.00;69.00;;;-142.21;100.00;112049.66;5071581;28;20558;-75
2022/04/28 01:10:47;;;;;;;6.87;5.63;;;12.00;69.20;;;-142.21;100.00;112049.66;5071734;28;20452;-75
2022/04/28 01:13:14;;;;;;;6.47;5.60;;;12.00;69.10;;;-142.21;100.00;112049.66;5071462;28;20828;-75
2022/04/28 01:15:45;;;;;;;7.10;5.90;;;12.00;69.10;;;-142.21;100.00;112049.66;5071660;28;20530;-76
2022/04/28 01:18:14;;;;;;;7.13;6.43;;;12.00;69.10;;;-142.21;100.00;112049.66;5066763;28;20464;-75
2022/04/28 01:20:42;;;;;;;6.97;6.27;;;12.00;69.10;;;-142.21;100.00;112049.66;5072170;28;20451;-75
2022/04/28 01:23:12;;;;;;;7.03;6.33;;;12.00;69.40;;;-142.21;100.00;112049.66;5071962;28;20480;-75
2022/04/28 01:25:39;;;;;;;8.77;6.33;;;12.00;69.40;;;-142.21;100.00;112049.66;5071097;28;20439;-74
2022/04/28 01:28:07;;;;;;;6.20;5.53;;;12.00;68.50;;;-142.21;100.00;112049.66;5036669;28;20465;-75
2022/04/28 01:30:37;;;;;;;6.73;6.03;;;12.10;68.40;;;-142.21;100.00;112049.66;5071557;28;20954;-75
2022/04/28 01:33:05;;;;;;;7.03;5.90;;;12.10;68.50;;;-142.21;100.00;112049.66;5071877;28;20494;-75
2022/04/28 01:35:33;;;;;;;6.10;5.50;;;12.00;68.30;;;-142.21;100.00;112049.66;5071103;28;20852;-75
2022/04/28 01:38:00;;;;;;;7.67;6.43;;;12.00;68.90;;;-142.21;100.00;112049.66;5069077;28;20534;-75
2022/04/28 01:40:29;;;;;;;7.37;6.67;;;11.80;68.30;;;-142.21;100.00;112049.66;5060685;28;20453;-74
2022/04/28 01:42:56;;;;;;;7.57;6.30;;;11.70;68.50;;;-142.21;100.00;112049.66;5072030;28;20493;-74
2022/04/28 01:45:23;;;;;;;7.20;6.50;;;11.70;69.00;;;-142.21;100.00;112049.66;5072187;28;20451;-75
2022/04/28 01:47:50;;;;;;;6.97;6.10;;;11.70;68.80;;;-142.21;100.00;112049.66;5071079;28;20447;-75
2022/04/28 01:50:17;;;;;;;7.30;6.63;;;11.70;69.00;;;-142.21;100.00;112049.66;5071514;28;20451;-75
2022/04/28 01:55:31;;;;;;;8.00;6.07;;;11.70;69.20;;;-142.21;100.00;112049.66;5068679;28;20950;-75
2022/04/28 01:57:58;;;;;;;8.70;6.60;;;11.80;69.70;;;-142.21;100.00;112049.66;5071053;28;20451;-75
2022/04/28 02:00:25;;;;;;;7.83;6.60;;;11.80;69.60;;;-142.21;100.00;112049.66;5051139;28;20432;-75
2022/04/28 02:02:53;;;;;;;8.47;6.63;;;11.80;69.50;;;-142.21;100.00;112049.66;5070994;28;20489;-75
2022/04/28 02:05:20;;;;;;;7.73;6.47;;;11.70;69.00;;;-142.21;100.00;112049.66;5036344;28;20447;-75
2022/04/28 02:07:47;;;;;;;7.03;6.33;;;11.70;69.40;;;-142.21;100.00;112049.66;5070385;28;20920;-75
2022/04/28 02:10:14;;;;;;;7.50;6.60;;;11.70;69.70;;;-142.21;100.00;112049.66;5071944;28;20447;-74
2022/04/28 02:12:43;;;;;;;7.67;6.87;;;11.70;68.90;;;-142.21;100.00;112049.66;5072069;28;20483;-75
2022/04/28 02:15:10;;;;;;;7.00;6.30;;;11.70;68.90;;;-142.21;100.00;112049.66;5074594;28;20450;-75
2022/04/28 02:17:40;;;;;;;7.00;6.30;;;11.70;69.70;;;-142.21;100.00;112049.66;5075345;28;20805;-75
2022/04/28 02:20:10;;;;;;;7.03;6.33;;;11.60;69.00;;;-142.21;100.00;112049.66;5074710;28;20451;-75
2022/04/28 02:22:37;;;;;;;7.00;6.30;;;11.60;69.70;;;-142.21;100.00;112049.66;5074769;28;20494;-75
2022/04/28 02:25:05;;;;;;;7.57;6.80;;;11.60;68.90;;;-142.21;100.00;112049.66;5074190;28;20518;-74
2022/04/28 02:27:32;;;;;;;6.50;5.90;;;11.50;69.00;;;-142.21;100.00;112049.66;5074369;28;20530;-75
2022/04/28 02:30:01;;;;;;;6.53;5.87;;;11.50;68.80;;;-142.21;100.00;112049.66;5073463;28;21020;-75
2022/04/28 02:33:08;;;;;;;7.73;6.87;;;11.50;68.80;;;-142.21;100.00;112049.66;5068351;28;20519;-75
2022/04/28 02:35:16;;;;;;;6.73;6.13;;;11.50;68.60;;;-142.21;100.00;112049.66;5066653;28;21029;-75
2022/04/28 02:37:43;;;;;;;6.60;6.00;;;11.50;68.80;;;-142.21;100.00;112049.66;5074774;28;20448;-75
2022/04/28 02:40:11;;;;;;;7.23;6.53;;;11.40;68.50;;;-142.21;100.00;112049.66;5073491;28;20505;-75
2022/04/28 02:42:38;;;;;;;7.90;6.77;;;11.40;68.30;;;-142.21;100.00;112049.66;5072740;28;20436;-75
2022/04/28 02:45:08;;;;;;;9.23;6.97;;;11.40;68.60;;;-142.21;100.00;112049.66;5074369;28;20440;-75
2022/04/28 02:47:35;;;;;;;7.57;6.77;;;11.40;68.70;;;-142.21;100.00;112049.66;5074622;28;20531;-75
2022/04/28 02:50:04;;;;;;;7.90;6.63;;;11.40;68.80;;;-142.21;100.00;112049.66;5074661;28;20455;-75
2022/04/28 02:52:31;;;;;;;7.50;6.57;;;11.40;69.20;;;-142.21;100.00;112049.66;5038035;28;20483;-76
2022/04/28 02:54:59;;;;;;;9.10;7.57;;;11.40;68.80;;;-142.21;100.00;112049.66;5074715;28;20447;-75
2022/04/28 02:57:26;;;;;;;7.97;7.10;;;11.40;68.70;;;-142.21;100.00;112049.66;5074105;28;20447;-74
2022/04/28 02:59:53;;;;;;;8.43;7.40;;;11.50;68.80;;;-142.21;100.00;112049.66;5073355;28;20447;-75
2022/04/28 03:02:24;;;;;;;7.93;7.13;;;11.40;68.90;;;-142.21;100.00;112049.66;5067592;28;20440;-75
2022/04/28 03:04:51;;;;;;;8.53;7.63;;;11.40;69.00;;;-142.21;100.00;112049.66;5068135;28;20441;-75
2022/04/28 03:12:49;;;;;;;8.03;7.23;;;11.30;68.50;;;-142.21;100.00;112049.66;5073321;28;20471;-75
2022/04/28 03:15:16;;;;;;;8.53;7.10;;;11.20;68.50;;;-142.21;100.00;112049.66;5063404;28;20451;-75
2022/04/28 03:17:44;;;;;;;7.70;6.90;;;11.30;68.50;;;-142.21;100.00;112049.66;5073387;28;20462;-75
2022/04/28 03:20:12;;;;;;;8.17;7.23;;;11.30;68.30;;;-142.21;100.00;112049.66;5073577;28;20459;-75
2022/04/28 03:22:39;;;;;;;7.30;6.60;;;11.30;68.40;;;-142.21;100.00;112049.66;5067778;28;21047;-75
2022/04/28 03:25:08;;;;;;;8.27;7.33;;;11.30;68.00;;;-142.21;100.00;112049.66;5068150;28;20509;-75
2022/04/28 03:27:35;;;;;;;8.30;7.50;;;11.40;67.80;;;-142.21;100.00;112049.66;5073448;28;20470;-75
2022/04/28 03:30:03;;;;;;;8.97;6.50;;;11.40;67.70;;;-142.21;100.00;112049.66;5073144;28;20474;-75
2022/04/28 03:32:30;;;;;;;7.70;6.30;;;11.40;67.10;;;-142.21;100.00;112049.66;5073279;28;20487;-74
2022/04/28 03:34:59;;;;;;;7.63;6.77;;;11.40;66.90;;;-142.21;100.00;112049.66;5072986;28;20474;-75
2022/04/28 03:37:26;;;;;;;7.83;7.03;;;11.40;67.00;;;-142.21;100.00;112049.66;5062700;28;20542;-75
2022/04/28 03:39:54;;;;;;;7.10;6.40;;;11.40;67.00;;;-142.21;100.00;112049.66;5072690;28;20447;-75
2022/04/28 03:42:21;;;;;;;7.53;6.70;;;11.40;66.70;;;-142.21;100.00;112049.66;5070676;28;20445;-75
2022/04/28 03:44:49;;;;;;;7.90;7.10;;;11.40;67.00;;;-142.21;100.00;112049.66;5052857;28;20440;-75
2022/04/28 03:47:16;;;;;;;9.93;7.77;;;11.40;67.70;;;-142.21;100.00;112049.66;5053798;28;20479;-75
2022/04/28 03:49:43;;;;;;;7.63;6.90;;;11.30;67.00;;;-142.21;100.00;112049.66;5034342;28;20463;-74
2022/04/28 03:52:12;;;;;;;7.27;6.57;;;11.30;67.50;;;-142.21;100.00;112049.66;5052226;28;20491;-75
2022/04/28 03:54:42;;;;;;;8.63;7.13;;;11.20;67.20;;;-142.21;100.00;112049.66;5053037;28;20440;-75
2022/04/28 03:57:09;;;;;;;9.10;7.90;;;11.20;67.80;;;-142.21;100.00;112049.66;5052738;28;20524;-75
2022/04/28 03:59:36;;;;;;;8.23;7.43;;;11.20;68.30;;;-142.21;100.00;112049.66;5053245;28;20973;-75
2022/04/28 04:02:05;;;;;;;7.73;6.93;;;11.20;68.50;;;-142.21;100.00;112049.66;5051273;28;20952;-75
2022/04/28 04:04:32;;;;;;;8.33;6.90;;;11.30;68.00;;;-142.21;100.00;112049.66;5051918;28;20494;-74
2022/04/28 04:07:00;;;;;;;7.67;6.80;;;11.30;68.40;;;-142.21;100.00;112049.66;5051055;28;20448;-75
2022/04/28 04:09:28;;;;;;;7.57;6.57;;;11.20;67.50;;;-142.21;100.00;112049.66;5044317;28;20444;-75
2022/04/28 04:11:55;;;;;;;8.43;6.83;;;11.20;68.00;;;-142.21;100.00;112049.66;5052897;28;20479;-75
2022/04/28 04:14:22;;;;;;;9.00;7.23;;;11.10;68.50;;;-142.21;100.00;112049.66;5052077;28;20448;-74
2022/04/28 04:16:49;;;;;;;7.47;6.77;;;11.10;68.60;;;-142.21;100.00;112049.66;5053206;28;20472;-75
2022/04/28 04:19:17;;;;;;;8.80;6.93;;;11.00;68.90;;;-142.21;100.00;112049.66;5052084;28;20480;-75
2022/04/28 04:21:47;;;;;;;7.60;6.80;;;11.00;69.20;;;-142.21;100.00;112049.66;5052744;28;20503;-75
2022/04/28 04:24:14;;;;;;;7.57;6.87;;;11.10;69.50;;;-142.21;100.00;112049.66;5052866;28;20440;-75
2022/04/28 04:26:43;;;;;;;8.23;6.97;;;11.00;70.00;;;-142.21;100.00;112049.66;5052916;28;21002;-75
2022/04/28 04:29:10;;;;;;;8.53;7.53;;;11.10;69.80;;;-142.21;100.00;112049.66;5052072;28;20506;-74
2022/04/28 04:34:22;;;;;;;10.33;7.10;;;11.10;69.40;;;-142.21;100.00;112049.66;5051635;28;20939;-74
2022/04/28 04:36:50;;;;;;;9.03;7.33;;;11.00;69.40;;;-142.21;100.00;112049.66;5051351;28;20452;-74
2022/04/28 04:39:17;;;;;;;8.37;7.20;;;11.00;69.50;;;-142.21;100.00;112049.66;5051233;28;20444;-74
2022/04/28 04:41:45;;;;;;;7.70;6.97;;;11.00;69.30;;;-142.21;100.00;112049.66;5050956;28;20818;-74
2022/04/28 04:44:14;;;;;;;8.97;6.87;;;10.90;69.50;;;-142.21;100.00;112049.66;5051857;28;20531;-74
2022/04/28 04:46:41;;;;;;;10.47;7.87;;;10.90;69.40;;;-142.21;100.00;112049.66;5050777;28;20999;-75
2022/04/28 04:49:09;;;;;;;8.70;7.83;;;10.90;69.50;;;-142.21;100.00;112049.66;5051338;28;20447;-75
2022/04/28 04:51:36;;;;;;;7.83;7.03;;;10.90;69.40;;;-142.21;100.00;112049.66;5051698;28;20458;-75
2022/04/28 04:54:03;;;;;;;9.40;7.80;;;10.90;69.80;;;-142.21;100.00;112049.66;5051227;28;20522;-75
2022/04/28 04:56:30;;;;;;;8.50;7.37;;;10.90;69.50;;;-142.21;100.00;112049.66;5050925;28;20453;-74
2022/04/28 04:58:59;;;;;;;9.30;7.80;;;10.90;69.80;;;-142.21;100.00;112049.66;5051232;28;20448;-75
2022/04/28 05:01:26;;;;;;;8.80;7.60;;;11.00;70.00;;;-142.21;100.00;112049.66;5051746;28;20531;-74
2022/04/28 05:03:53;;;;;;;8.97;7.37;;;11.10;70.70;;;-142.21;100.00;112049.66;5050934;28;20972;-75
2022/04/28 05:06:20;;;;;;;8.63;7.13;;;11.10;70.30;;;-142.21;100.00;112049.66;5051660;28;20448;-75
2022/04/28 05:08:48;;;;;;;7.93;7.13;;;11.20;70.10;;;-142.21;100.00;112049.66;5052066;28;20450;-75
2022/04/28 05:11:16;;;;;;;9.33;7.57;;;11.20;70.50;;;-142.21;100.00;112049.66;5049481;28;20544;-75
2022/04/28 05:13:43;;;;;;;8.33;7.27;;;11.20;70.40;;;-142.21;100.00;112049.66;5051765;28;20842;-75
2022/04/28 05:16:12;;;;;;;8.40;7.37;;;11.20;70.30;;;-142.21;100.00;112049.66;5051115;28;20466;-76
2022/04/28 05:18:39;;;;;;;8.70;7.80;;;11.30;70.50;;;-142.21;100.00;112049.66;5031961;28;20463;-76
2022/04/28 05:21:06;;;;;;;8.67;7.77;;;11.40;70.30;;;-142.21;100.00;112049.66;5039877;28;20479;-76
2022/04/28 05:23:33;;;;;;;9.40;7.93;;;11.50;70.90;;;-142.21;100.00;112049.66;5052728;28;20440;-76
2022/04/28 05:26:01;;;;;;;8.43;7.63;;;11.60;71.40;;;-142.21;100.00;112049.66;5016222;28;20805;-74
2022/04/28 05:28:28;;;;;;;8.87;7.60;;;11.60;70.50;;;-142.21;100.00;112049.66;5050597;28;20472;-74
2022/04/28 05:30:56;;;;;;;8.67;7.77;;;11.70;71.30;;;-142.21;100.00;112049.66;5048505;28;20453;-75
2022/04/28 05:33:24;;;;;;;8.77;7.87;;;11.80;71.00;;;-142.21;100.00;112049.66;5037283;28;20646;-75
2022/04/28 05:35:53;;;;;;;8.33;7.43;;;11.90;71.10;;;-142.21;100.00;112049.66;5031806;28;20504;-75
2022/04/28 05:38:20;;;;;;;9.20;8.27;;;12.00;71.50;;;-142.21;100.00;112049.66;5051100;28;20444;-75
2022/04/28 05:40:47;;;;;;;8.90;7.83;;;12.10;70.60;;;-142.21;100.00;112049.66;5050720;28;20498;-73
2022/04/28 05:46:00;;;;;;;8.77;7.73;;;12.30;70.70;;;-142.21;100.00;112049.66;5064517;28;20431;-75
2022/04/28 05:48:29;;;;;;;9.17;8.27;;;12.40;70.80;;;-142.21;100.00;112049.66;5053768;28;20447;-75
2022/04/28 05:50:59;;;;;;;9.27;8.00;;;12.50;69.80;;;-142.21;100.00;112049.66;5055201;28;20562;-73
2022/04/28 05:53:27;;;;;;;8.47;7.67;;;12.60;69.00;;;-142.21;100.00;112049.66;5055028;28;20474;-73
2022/04/28 05:55:55;;;;;;;10.57;8.57;;;12.80;69.50;;;-142.21;100.00;112049.66;5054366;28;20444;-74
2022/04/28 05:58:22;;;;;;;9.90;8.03;;;12.70;69.10;;;-142.21;100.00;112049.66;5056392;28;21134;-73
2022/04/28 06:00:50;;;;;;;10.83;8.27;;;12.80;69.80;;;-142.21;100.00;112049.66;5060506;28;20439;-76
2022/04/28 06:03:17;;;;;;;8.70;7.40;;;12.90;69.60;;;-142.21;100.00;112049.66;5054892;28;20550;-76
2022/04/28 06:05:45;;;;;;;10.23;7.20;;;12.90;69.10;;;-142.21;100.00;112049.66;5054354;28;20483;-75
2022/04/28 06:08:12;;;;;;;9.63;8.63;;;13.00;69.60;;;-142.21;100.00;112049.66;5020276;28;20482;-74
2022/04/28 06:10:39;;;;;;;9.60;8.10;;;13.00;69.20;;;-142.21;100.00;112049.66;5053935;28;20468;-75
2022/04/28 06:13:08;;;;;;;8.30;7.50;;;13.10;69.70;;;-142.21;100.00;112049.66;5054816;28;20563;-74
2022/04/28 06:15:35;;;;;;;9.27;8.27;;;13.30;69.00;;;-142.21;100.00;112049.66;5054484;28;20892;-75
2022/04/28 06:18:02;;;;;;;9.60;8.60;;;13.30;68.60;;;-142.21;100.00;112049.66;5064674;28;20559;-76
2022/04/28 06:20:29;;;;;;;8.97;7.93;;;13.40;68.80;;;-142.21;100.00;112049.66;5061492;28;20462;-75
2022/04/28 06:22:58;;;;;;;8.60;7.77;;;13.50;68.40;;;-142.21;100.00;112049.66;5054743;28;20527;-75
2022/04/28 06:25:26;;;;;;;8.53;7.67;;;13.60;67.90;;;-142.21;100.00;112049.66;5054029;28;20448;-74
2022/04/28 06:27:53;;;;;;;9.53;8.53;;;13.70;67.50;;;-142.21;100.00;112049.66;5053761;28;20449;-75
2022/04/28 06:30:21;;;;;;;11.07;7.93;;;13.80;67.40;;;-142.21;100.00;112049.66;5068368;28;20447;-75
2022/04/28 06:32:48;;;;;;;8.40;7.60;;;13.90;67.20;;;-142.21;100.00;112049.66;5054070;28;20536;-75
2022/04/28 06:35:15;;;;;;;8.70;7.80;;;13.90;67.10;;;-142.21;100.00;112049.66;5052942;28;21028;-75
2022/04/28 06:37:42;;;;;;;10.73;7.20;;;13.90;66.70;;;-142.21;100.00;112049.66;5042255;28;20882;-75
2022/04/28 06:40:12;;;;;;;8.70;7.67;;;14.00;66.60;;;-142.21;100.00;112049.66;5054643;28;20479;-75
2022/04/28 06:42:43;;;;;;;8.87;7.30;;;14.10;66.10;;;-142.21;100.00;112049.66;5066194;28;20449;-75
2022/04/28 06:45:12;;;;;;;8.80;7.90;;;14.30;67.70;;;-142.21;100.00;112049.66;5053143;28;20530;-75
2022/04/28 06:47:39;;;;;;;8.07;7.13;;;14.40;66.10;;;-142.21;100.00;112049.66;5049681;28;20797;-76
2022/04/28 06:50:07;;;;;;;7.10;5.97;;;15.30;65.50;;;-142.21;100.00;112049.66;5053339;28;20457;-75
2022/04/28 06:52:36;;;;;;;6.60;5.73;;;20.20;56.30;;;-142.21;100.00;112049.66;5046554;28;20472;-75
2022/04/28 06:55:05;;;;;;;6.43;5.50;;;24.10;48.80;;;-142.21;100.00;112049.66;5053600;28;20452;-76
2022/04/28 06:57:34;;;;;;;6.53;5.90;;;23.00;45.90;;;-142.21;100.00;112049.66;5052976;28;20480;-76
2022/04/28 07:00:03;;;;;;;6.93;6.23;;;22.10;50.20;;;-142.21;100.00;112049.66;5053011;28;20444;-75
2022/04/28 07:02:30;;;;;;;5.77;5.27;;;25.40;46.20;;;-142.21;100.00;112049.66;5053268;28;20543;-76
2022/04/28 07:04:58;;;;;;;5.70;5.10;;;28.30;41.60;;;-142.21;100.00;112049.66;5054010;28;20290;-75
2022/04/28 07:07:25;;;;;;;5.73;5.20;;;28.10;40.10;;;-142.21;100.00;112049.66;5053126;28;20197;-74
2022/04/28 07:09:52;;;;;;;6.60;5.60;;;25.70;43.30;;;-142.21;100.00;112049.66;5053290;28;20628;-75
2022/04/28 07:12:19;;;;;;;6.47;5.73;;;26.20;42.80;;;-142.21;100.00;112049.66;5053229;28;20563;-76
2022/04/28 07:14:48;;;;;;;6.93;5.70;;;27.40;41.20;;;-142.21;100.00;112049.66;5052810;28;20784;-75
2022/04/28 07:17:15;;;;;;;6.67;6.07;;;25.70;42.50;;;-142.21;100.00;112049.66;5053599;28;20202;-75
2022/04/28 07:19:42;;;;;;;6.33;5.73;;;24.30;45.40;;;-142.21;100.00;112049.66;5053025;28;20214;-75
2022/04/28 07:22:10;;;;;;;6.93;5.73;;;22.80;47.10;;;-142.21;100.00;112049.66;5053215;28;20728;-75
2022/04/28 07:24:37;;;;;;;6.70;6.00;;;21.40;49.20;;;-142.21;100.00;112049.66;5053490;28;20198;-75
2022/04/28 07:27:04;;;;;;;6.10;5.50;;;20.50;50.50;;;-142.21;100.00;112049.66;5052243;28;20615;-74
2022/04/28 07:29:31;;;;;;;6.57;5.87;;;19.90;51.90;;;-142.21;100.00;112049.66;5053107;28;20291;-74
2022/04/28 07:32:00;;;;;;;6.23;5.63;;;20.30;52.30;;;-142.21;100.00;112049.66;5068137;28;20209;-74
2022/04/28 07:34:28;;;;;;;6.03;5.43;;;20.30;51.30;;;-142.21;100.00;112049.66;5053279;28;20823;-76
2022/04/28 07:36:55;;;;;;;5.47;4.97;;;21.00;51.20;;;-142.21;100.00;112049.66;5051191;28;20210;-76
2022/04/28 07:39:22;;;;;;;6.40;5.33;;;21.10;50.20;;;-142.21;100.00;112049.66;5053546;28;20569;-77
2022/04/28 07:41:50;;;;;;;5.67;5.07;;;20.50;51.00;;;-142.21;96.17;112049.66;5052542;28;20260;-76
2022/04/28 07:44:17;;;;;;;5.30;4.80;;;20.10;51.50;;;-142.21;97.93;112049.66;5052774;28;20234;-75
2022/04/28 07:46:44;;;;;;;6.07;5.47;;;21.00;50.70;;;-142.21;97.07;112049.66;5051974;28;20450;-76
2022/04/28 07:49:13;;;;;;;6.50;5.47;;;20.50;50.90;;;-142.21;94.71;112049.66;5052163;28;20210;-75
2022/04/28 07:51:41;;;;;;;5.47;4.97;;;19.80;51.40;;;-142.21;91.10;112049.66;5053129;28;20463;-76
2022/04/28 07:54:08;;;;;;;7.33;5.03;;;19.40;51.50;;;-142.21;93.62;112049.66;5051066;28;20484;-75
2022/04/28 07:56:35;;;;;;;6.30;5.30;;;19.20;52.80;;;-142.21;87.12;112049.66;5051119;28;20527;-75
2022/04/28 07:59:03;;;;;;;5.73;5.00;;;19.00;51.60;;;-142.21;85.47;112049.66;5052649;28;20452;-76
2022/04/28 08:01:32;;;;;;;5.77;4.73;;;18.90;51.60;;;-142.21;82.28;112049.66;5032335;28;20453;-75
2022/04/28 08:03:59;;;;;;;5.07;4.43;;;18.90;51.70;;;-142.21;88.31;112049.66;5043871;28;20850;-76
2022/04/28 08:06:28;;;;;;;5.47;4.90;;;18.90;52.70;;;-142.21;85.42;112049.66;5051918;28;20979;-75
2022/04/28 08:08:55;;;;;;;5.20;4.70;;;19.00;52.10;;;-142.21;82.90;112049.66;5052399;28;20551;-76
2022/04/28 08:11:22;;;;;;;5.10;4.60;;;19.30;52.20;;;-142.21;79.43;112049.66;5051374;28;20539;-76
2022/04/28 08:13:49;;;;;;;6.87;4.50;;;19.50;51.50;;;-142.21;79.76;112049.66;5067714;28;20575;-75
2022/04/28 08:16:17;;;;;;;5.23;4.73;;;19.30;50.70;;;-142.21;82.25;112049.66;5052107;28;20456;-76
2022/04/28 08:18:44;;;;;;;5.00;4.37;;;19.10;51.60;;;-142.21;81.45;112049.66;5052035;28;20523;-75
2022/04/28 08:21:11;;;;;;;5.23;4.10;;;19.20;52.10;;;-142.21;86.64;112049.66;5052831;28;20492;-74
2022/04/28 08:23:39;;;;;;;5.30;4.80;;;19.10;53.30;;;-142.21;72.59;112049.66;5051579;28;20890;-77
2022/04/28 08:26:07;;;;;;;4.83;4.27;;;19.00;51.40;;;-142.21;83.71;112049.66;5067676;28;20826;-74
2022/04/28 08:28:36;;;;;;;4.93;4.30;;;19.00;53.10;;;-142.21;80.69;112049.66;5051190;28;20484;-75
2022/04/28 08:31:03;;;;;;;4.93;4.10;;;19.20;53.00;;;-142.21;77.20;112049.66;5052691;28;20531;-75
2022/04/28 08:33:30;;;;;;;4.80;4.30;;;19.30;52.70;;;-142.21;82.70;112049.66;5050975;28;20552;-75
2022/04/28 08:35:58;;;;;;;4.57;4.13;;;19.40;53.40;;;-142.21;79.46;112049.66;5052456;28;20868;-75
2022/04/28 08:38:25;;;;;;;4.40;4.00;;;19.50;53.40;;;-142.21;75.66;112049.66;5052325;28;20468;-75
2022/04/28 08:41:01;;;;;;;5.83;4.00;;;19.70;52.40;;;-142.21;73.53;112049.66;5051862;28;20622;-76
2022/04/28 08:43:32;;;;;;;4.40;3.80;;;19.80;51.90;;;-142.21;66.81;112049.66;5052845;28;20516;-76
2022/04/28 08:49:07;;;;;;;4.60;4.20;;;20.00;50.80;;;-142.21;62.07;112049.66;4990424;28;20963;-76
2022/04/28 08:51:34;;;;;;;4.93;3.83;;;20.10;49.50;;;-142.21;67.26;112049.66;4990415;28;20230;-75
2022/04/28 08:54:02;;;;;;;6.13;3.50;;;20.40;50.80;;;-142.21;56.48;112049.66;4999620;28;20596;-75
2022/04/28 08:56:31;;;;;;;3.90;3.57;;;20.70;47.80;;;-142.21;52.96;112049.66;5032316;28;20456;-76
2022/04/28 08:59:01;;;;;;;4.00;3.60;;;22.70;47.50;;;-142.21;42.51;112049.66;5037466;28;20730;-76
2022/04/28 09:01:29;;;;;;;4.53;3.90;;;23.80;43.70;;;-142.21;37.89;112049.66;5051711;28;20200;-75
2022/04/28 09:04:00;;;;;;;3.83;3.53;;;26.10;42.80;;;-142.21;37.10;112049.66;5050915;28;20196;-76
2022/04/28 09:06:30;;;;;;;4.43;3.67;;;29.60;38.90;;;-142.21;34.84;112049.66;5051765;28;20196;-76
2022/04/28 09:08:59;;;;;;;4.93;3.13;;;32.70;35.70;;;-142.21;34.63;112049.66;5050792;28;20218;-76
2022/04/28 09:11:29;;;;;;;5.40;3.40;;;35.20;32.00;;;-142.21;34.93;112049.66;5051603;28;20237;-76
2022/04/28 09:14:12;;;;;;;4.10;3.33;;;36.40;29.10;;;-142.21;39.33;112049.66;5050732;28;20205;-74
2022/04/28 09:16:45;;;;;;;6.73;3.37;;;37.70;28.90;;;-142.21;39.00;112049.66;5051873;28;20221;-74
2022/04/28 09:19:15;;;;;;;4.70;3.37;;;37.60;27.10;;;-142.21;41.94;112049.66;5051140;28;20268;-74
2022/04/28 09:21:43;;;;;;;3.97;3.57;;;35.30;29.30;;;-142.21;38.83;112049.66;5052022;28;20213;-75
2022/04/28 09:24:11;;;;;;;4.30;3.23;;;33.10;29.60;;;-142.21;40.25;112049.66;5053704;28;20225;-75
2022/04/28 09:26:40;;;;;;;4.40;3.30;;;31.20;30.80;;;-142.21;41.49;112049.66;5055567;28;20214;-74
2022/04/28 09:29:13;;;;;;;4.27;3.87;;;29.40;33.70;;;-142.21;41.49;112049.66;5054762;28;20234;-77
2022/04/28 09:31:43;;;;;;;4.23;3.83;;;28.00;35.90;;;-142.21;42.03;112049.66;5055658;28;20192;-76
2022/04/28 09:34:12;;;;;;;3.67;3.23;;;26.90;36.70;;;-142.21;41.51;112049.66;5054913;28;20577;-75
2022/04/28 09:36:43;;;;;;;4.70;3.57;;;26.20;37.50;;;-142.21;41.31;112049.66;5055245;28;20211;-74
2022/04/28 09:39:14;;;;;;;3.50;3.20;;;25.50;38.10;;;-142.21;40.27;112049.66;5054989;28;20190;-75
2022/04/28 09:44:27;;;;;;;4.80;3.37;;;24.80;37.70;;;-142.21;41.14;112049.66;5054680;28;20267;-74
2022/04/28 09:46:54;;;;;;;4.80;3.40;;;24.40;39.60;;;-142.21;39.65;112049.66;5054899;28;20204;-75
2022/04/28 09:49:24;;;;;;;3.90;3.50;;;24.40;38.90;;;-142.21;41.42;112049.66;5054293;28;20204;-75
2022/04/28 09:51:59;;;;;;;4.00;3.60;;;24.50;40.50;;;-142.21;38.83;112049.66;5053053;28;20244;-75
2022/04/28 09:54:33;;;;;;;4.37;3.90;;;24.40;39.10;;;-142.21;39.78;112049.66;5069478;28;20225;-76
2022/04/28 09:57:01;;;;;;;5.13;3.47;;;24.20;39.40;;;-142.21;38.88;112049.66;5055168;28;20197;-76
2022/04/28 09:59:31;;;;;;;3.70;3.30;;;24.10;39.00;;;-142.21;38.01;112049.66;5054409;28;20671;-76
2022/04/28 10:02:00;;;;;;;3.90;3.50;;;24.20;38.50;;;-142.21;37.62;112049.66;5054639;28;20636;-75
2022/04/28 10:04:30;;;;;;;3.37;3.00;;;24.20;39.00;;;-142.21;35.34;112049.66;5054259;28;20290;-75
2022/04/28 10:06:59;;;;;;;3.90;3.10;;;24.20;37.40;;;-142.21;36.31;112049.66;5054566;28;20204;-75
2022/04/28 10:09:28;;;;;;;3.77;3.47;;;24.10;36.60;;;-142.21;37.58;112049.66;5054363;28;20223;-75
2022/04/28 10:11:57;;;;;;;3.47;2.97;;;24.00;38.70;;;-142.21;36.06;112049.66;5054820;28;20233;-75
2022/04/28 10:14:26;;;;;;;3.40;3.10;;;24.00;37.70;;;-142.21;37.83;112049.66;5052945;28;20286;-75
2022/04/28 10:16:58;;;;;;;3.60;3.30;;;24.10;39.40;;;-142.21;36.32;112049.66;5054934;28;20419;-75
2022/04/28 10:19:34;;;;;;;4.30;3.13;;;24.40;40.50;;;-142.21;36.96;112049.66;5040781;28;20197;-77
2022/04/28 10:22:08;;;;;;;3.43;2.90;;;24.50;38.60;;;-142.21;36.66;112049.66;5054393;28;20195;-78